Time;durP1;ratioP1;P1;durP2;ratioP2;P2;SDS_P1;SDS_P2;PMS_P1;PMS_P2;Temp;Humidity;BMP_temperature;BMP_pressure;BME280_temperature;BME280_humidity;BME280_pressure;Samples;Min_cycle;Max_cycle;Signal;HPM_P1;HPM_P2
2021/11/07 00:01:40;;;;;;;51.55;27.13;;;;;;;;;;5075725;28;20075;-73
2021/11/07 00:06:40;;;;;;;52.00;27.83;;;;;;;;;;5075432;28;20492;-73
2021/11/07 00:09:32;;;;;;;54.88;27.88;;;;;;;;;;5057333;28;20037;-73
2021/11/07 00:12:00;;;;;;;45.67;25.63;;;;;;;;;;5075208;28;20040;-73
2021/11/07 00:14:27;;;;;;;43.92;25.10;;;;;;;;;;5075602;28;20075;-73
2021/11/07 00:16:55;;;;;;;38.08;22.95;;;;;;;;;;5057900;28;20369;-73
2021/11/07 00:19:32;;;;;;;43.85;23.10;;;;;;;;;;5075837;28;20039;-72
2021/11/07 00:24:42;;;;;;;51.65;25.40;;;;;;;;;;5075753;28;20044;-72
2021/11/07 00:37:55;;;;;;;40.63;23.85;;;;;;;;;;5074793;28;20055;-71
2021/11/07 00:40:33;;;;;;;46.67;27.08;;;;;;;;;;5075565;28;20047;-71
2021/11/07 00:43:09;;;;;;;47.45;26.67;;;;;;;;;;5075785;28;20032;-70
2021/11/07 00:50:45;;;;;;;45.95;25.38;;;;;;;;;;5074899;28;20035;-70
2021/11/07 00:53:41;;;;;;;48.75;26.25;;;;;;;;;;5057506;28;20033;-71
2021/11/07 00:58:43;;;;;;;46.53;27.15;;;;;;;;;;5075219;28;20111;-71
2021/11/07 01:01:15;;;;;;;50.10;27.35;;;;;;;;;;5056384;28;20480;-71
2021/11/07 01:03:41;;;;;;;61.38;33.45;;;;;;;;;;5074915;28;20043;-71
2021/11/07 01:06:09;;;;;;;60.03;31.77;;;;;;;;;;5056580;28;20430;-71
2021/11/07 01:08:34;;;;;;;50.08;26.17;;;;;;;;;;5074556;28;20032;-71
2021/11/07 01:11:01;;;;;;;54.33;30.27;;;;;;;;;;5074494;28;20024;-71
2021/11/07 01:13:32;;;;;;;54.78;30.17;;;;;;;;;;5074468;28;20033;-71
2021/11/07 01:15:57;;;;;;;51.42;29.73;;;;;;;;;;5056456;28;20045;-71
2021/11/07 01:18:23;;;;;;;52.75;29.73;;;;;;;;;;5056485;28;20028;-71
2021/11/07 01:20:49;;;;;;;45.28;26.10;;;;;;;;;;5074074;28;20048;-72
2021/11/07 01:23:21;;;;;;;42.45;25.55;;;;;;;;;;5074604;28;20032;-70
2021/11/07 01:25:52;;;;;;;40.75;25.15;;;;;;;;;;5056965;28;20040;-71
2021/11/07 01:28:21;;;;;;;42.25;25.20;;;;;;;;;;5074503;28;20029;-70
2021/11/07 01:30:55;;;;;;;78.50;38.10;;;;;;;;;;5071782;28;20020;-70
2021/11/07 01:33:25;;;;;;;102.63;47.03;;;;;;;;;;5074188;28;20052;-64
2021/11/07 01:38:42;;;;;;;64.78;33.60;;;;;;;;;;5073878;28;20561;-70
2021/11/07 01:43:40;;;;;;;46.40;25.52;;;;;;;;;;5056275;28;20123;-71
2021/11/07 01:46:25;;;;;;;51.33;26.23;;;;;;;;;;5074288;28;20494;-71
2021/11/07 01:51:21;;;;;;;37.42;23.27;;;;;;;;;;5073661;28;20468;-70
2021/11/07 01:53:48;;;;;;;30.58;20.75;;;;;;;;;;5073343;28;20507;-70
2021/11/07 01:56:14;;;;;;;34.72;20.65;;;;;;;;;;5074058;28;20060;-70
2021/11/07 01:58:41;;;;;;;35.47;20.30;;;;;;;;;;5073824;28;20050;-71
2021/11/07 02:01:07;;;;;;;34.15;20.98;;;;;;;;;;5074107;28;20036;-70
2021/11/07 02:03:34;;;;;;;35.00;20.60;;;;;;;;;;5074075;28;20071;-64
2021/11/07 02:05:59;;;;;;;33.60;20.90;;;;;;;;;;5073618;28;20032;-64
2021/11/07 02:08:25;;;;;;;34.67;20.40;;;;;;;;;;5055696;28;20024;-70
2021/11/07 02:10:54;;;;;;;38.20;21.92;;;;;;;;;;5073651;28;20430;-71
2021/11/07 02:13:20;;;;;;;78.85;30.08;;;;;;;;;;5073479;28;20476;-71
2021/11/07 02:15:46;;;;;;;130.32;41.15;;;;;;;;;;5073478;28;20025;-71
2021/11/07 02:18:17;;;;;;;134.20;42.13;;;;;;;;;;5073211;28;20075;-71
2021/11/07 02:20:43;;;;;;;76.80;31.35;;;;;;;;;;5073332;28;20404;-71
2021/11/07 02:23:11;;;;;;;45.95;24.10;;;;;;;;;;5073628;28;20538;-71
2021/11/07 02:25:38;;;;;;;43.58;26.77;;;;;;;;;;5073683;28;20451;-70
2021/11/07 02:28:06;;;;;;;49.10;28.63;;;;;;;;;;5073319;28;20027;-70
2021/11/07 02:30:32;;;;;;;44.05;26.17;;;;;;;;;;5073255;28;20033;-70
2021/11/07 02:33:01;;;;;;;47.60;28.73;;;;;;;;;;5073123;28;20032;-70
2021/11/07 02:35:27;;;;;;;51.08;30.13;;;;;;;;;;5073276;28;20381;-71
2021/11/07 02:37:53;;;;;;;44.55;27.17;;;;;;;;;;5072969;28;20083;-71
2021/11/07 02:40:18;;;;;;;44.50;27.95;;;;;;;;;;5073632;28;20048;-72
2021/11/07 02:42:45;;;;;;;46.58;27.65;;;;;;;;;;5073120;28;20025;-72
2021/11/07 02:45:14;;;;;;;44.65;26.90;;;;;;;;;;5073231;28;20036;-72
2021/11/07 02:47:41;;;;;;;42.08;26.83;;;;;;;;;;5073079;28;20033;-72
2021/11/07 02:50:07;;;;;;;42.55;25.98;;;;;;;;;;5072987;28;20040;-72
2021/11/07 02:52:39;;;;;;;39.30;24.63;;;;;;;;;;5072973;28;20033;-72
2021/11/07 02:55:05;;;;;;;35.97;22.50;;;;;;;;;;5055601;28;20048;-72
2021/11/07 02:57:31;;;;;;;45.60;24.45;;;;;;;;;;5073459;28;20112;-72
2021/11/07 02:59:58;;;;;;;43.47;26.08;;;;;;;;;;5072903;28;20041;-72
2021/11/07 03:02:25;;;;;;;39.40;24.33;;;;;;;;;;5073278;28;20027;-72
2021/11/07 03:04:51;;;;;;;39.88;23.10;;;;;;;;;;5072802;28;20503;-71
2021/11/07 03:07:16;;;;;;;33.92;21.27;;;;;;;;;;5072724;28;20029;-71
2021/11/07 03:09:42;;;;;;;33.95;20.58;;;;;;;;;;5072506;28;20040;-71
2021/11/07 03:12:16;;;;;;;35.55;20.35;;;;;;;;;;5055299;28;20029;-71
2021/11/07 03:14:44;;;;;;;39.55;21.17;;;;;;;;;;5073113;28;20419;-71
2021/11/07 03:17:12;;;;;;;35.45;21.48;;;;;;;;;;5073080;28;20039;-71
2021/11/07 03:19:39;;;;;;;37.40;20.50;;;;;;;;;;5073216;28;20040;-70
2021/11/07 03:22:07;;;;;;;35.83;20.90;;;;;;;;;;5072706;28;20033;-70
2021/11/07 03:24:32;;;;;;;34.45;20.05;;;;;;;;;;5072787;28;20033;-70
2021/11/07 03:26:59;;;;;;;31.35;18.80;;;;;;;;;;5073025;28;20021;-65
2021/11/07 03:29:32;;;;;;;28.70;17.35;;;;;;;;;;5072922;28;20035;-66
2021/11/07 03:32:09;;;;;;;25.27;16.30;;;;;;;;;;5072906;28;20044;-66
2021/11/07 03:34:56;;;;;;;29.63;16.90;;;;;;;;;;5072893;28;20032;-66
2021/11/07 03:37:24;;;;;;;32.00;18.02;;;;;;;;;;5072640;28;20101;-70
2021/11/07 03:39:51;;;;;;;33.30;19.27;;;;;;;;;;5073049;28;20071;-71
2021/11/07 03:42:17;;;;;;;33.63;18.45;;;;;;;;;;5073131;28;20048;-71
2021/11/07 03:44:43;;;;;;;36.60;19.38;;;;;;;;;;5074599;28;20027;-71
2021/11/07 03:47:09;;;;;;;30.73;17.77;;;;;;;;;;5076196;28;20040;-65
2021/11/07 03:49:35;;;;;;;31.23;18.58;;;;;;;;;;5076434;28;20139;-65
2021/11/07 03:52:01;;;;;;;31.08;17.95;;;;;;;;;;5075972;28;20466;-66
2021/11/07 03:54:29;;;;;;;31.70;17.98;;;;;;;;;;5058215;28;20024;-65
2021/11/07 03:56:56;;;;;;;27.42;17.42;;;;;;;;;;5076483;28;20040;-66
2021/11/07 03:59:21;;;;;;;29.92;18.23;;;;;;;;;;5076005;28;20024;-66
2021/11/07 04:01:47;;;;;;;29.10;17.33;;;;;;;;;;5075853;28;20051;-66
2021/11/07 04:04:12;;;;;;;30.48;17.52;;;;;;;;;;5075170;28;20412;-65
2021/11/07 04:06:38;;;;;;;26.15;15.98;;;;;;;;;;5075980;28;20052;-65
2021/11/07 04:09:08;;;;;;;27.05;16.33;;;;;;;;;;5075438;28;20464;-65
2021/11/07 04:11:34;;;;;;;26.23;15.68;;;;;;;;;;5075842;28;20492;-71
2021/11/07 04:13:59;;;;;;;25.83;16.27;;;;;;;;;;5058291;28;20086;-71
2021/11/07 04:16:27;;;;;;;26.58;16.52;;;;;;;;;;5075899;28;20085;-71
2021/11/07 04:18:55;;;;;;;26.02;15.77;;;;;;;;;;5057460;28;20032;-71
2021/11/07 04:21:21;;;;;;;27.00;16.80;;;;;;;;;;5057857;28;20431;-71
2021/11/07 04:23:46;;;;;;;25.75;15.93;;;;;;;;;;5075821;28;20032;-67
2021/11/07 04:26:12;;;;;;;25.63;15.00;;;;;;;;;;5075477;28;20041;-67
2021/11/07 04:28:39;;;;;;;27.10;16.30;;;;;;;;;;5075701;28;20032;-73
2021/11/07 04:31:05;;;;;;;27.90;17.35;;;;;;;;;;5075375;28;20035;-72
2021/11/07 04:33:31;;;;;;;28.15;16.25;;;;;;;;;;5075350;28;20021;-71
2021/11/07 04:35:57;;;;;;;28.40;17.67;;;;;;;;;;5075789;28;20028;-70
2021/11/07 04:38:23;;;;;;;38.83;23.23;;;;;;;;;;5074749;28;20032;-71
2021/11/07 04:40:49;;;;;;;30.88;20.80;;;;;;;;;;5075504;28;20522;-72
2021/11/07 04:43:17;;;;;;;31.85;21.83;;;;;;;;;;5075097;28;20107;-66
2021/11/07 04:45:43;;;;;;;40.10;25.17;;;;;;;;;;5075482;28;20041;-66
2021/11/07 04:48:08;;;;;;;35.03;21.77;;;;;;;;;;5075459;28;20045;-66
2021/11/07 04:50:38;;;;;;;40.65;21.55;;;;;;;;;;5057132;28;20111;-66
2021/11/07 04:53:08;;;;;;;35.58;20.10;;;;;;;;;;5075038;28;20488;-72
2021/11/07 04:55:34;;;;;;;32.70;18.87;;;;;;;;;;5074209;28;20036;-72
2021/11/07 04:58:01;;;;;;;31.38;19.25;;;;;;;;;;5074636;28;20487;-72
2021/11/07 05:00:27;;;;;;;30.42;19.15;;;;;;;;;;5056474;28;20419;-72
2021/11/07 05:02:53;;;;;;;32.60;19.52;;;;;;;;;;5074695;28;20032;-72
2021/11/07 05:05:20;;;;;;;31.05;20.30;;;;;;;;;;5075420;28;20468;-72
2021/11/07 05:07:47;;;;;;;33.33;19.70;;;;;;;;;;5074969;28;20495;-72
2021/11/07 05:10:13;;;;;;;37.15;19.58;;;;;;;;;;5074991;28;20037;-72
2021/11/07 05:12:38;;;;;;;32.47;19.27;;;;;;;;;;5074911;28;20028;-72
2021/11/07 05:15:04;;;;;;;29.63;18.45;;;;;;;;;;5074488;28;20028;-71
2021/11/07 05:17:31;;;;;;;29.17;17.98;;;;;;;;;;5074887;28;20067;-71
2021/11/07 05:19:56;;;;;;;28.70;18.05;;;;;;;;;;5074537;28;20098;-71
2021/11/07 05:22:22;;;;;;;29.20;15.38;;;;;;;;;;5074448;28;20029;-65
2021/11/07 05:24:47;;;;;;;27.90;17.05;;;;;;;;;;5056230;28;20040;-71
2021/11/07 05:27:15;;;;;;;28.48;17.92;;;;;;;;;;5056188;28;20041;-65
2021/11/07 05:29:40;;;;;;;29.02;17.60;;;;;;;;;;5074308;28;20067;-65
2021/11/07 05:32:06;;;;;;;27.90;18.17;;;;;;;;;;5074080;28;20055;-72
2021/11/07 05:34:32;;;;;;;32.47;18.65;;;;;;;;;;5074083;28;20124;-72
2021/11/07 05:36:58;;;;;;;27.02;16.55;;;;;;;;;;5073903;28;20040;-72
2021/11/07 05:39:26;;;;;;;31.92;17.77;;;;;;;;;;5074317;28;20158;-72
2021/11/07 05:41:51;;;;;;;27.58;16.55;;;;;;;;;;5073954;28;20465;-64
2021/11/07 05:44:17;;;;;;;26.80;16.60;;;;;;;;;;5073112;28;20089;-64
2021/11/07 05:46:43;;;;;;;28.10;17.23;;;;;;;;;;5072241;28;20079;-64
2021/11/07 05:49:09;;;;;;;29.05;17.48;;;;;;;;;;5072730;28;20123;-65
2021/11/07 05:51:35;;;;;;;25.30;16.17;;;;;;;;;;5073060;28;20056;-65
2021/11/07 05:54:01;;;;;;;29.58;17.20;;;;;;;;;;5073286;28;20040;-65
2021/11/07 05:56:27;;;;;;;27.48;18.20;;;;;;;;;;5072769;28;20033;-65
2021/11/07 05:58:52;;;;;;;29.17;17.55;;;;;;;;;;5081370;28;20507;-65
2021/11/07 06:01:18;;;;;;;27.27;16.73;;;;;;;;;;5093109;28;20036;-65
2021/11/07 06:03:43;;;;;;;25.70;16.42;;;;;;;;;;5093119;28;20109;-64
2021/11/07 06:06:09;;;;;;;29.70;17.85;;;;;;;;;;5093045;28;20024;-64
2021/11/07 06:08:35;;;;;;;30.08;18.02;;;;;;;;;;5092874;28;20060;-64
2021/11/07 06:11:00;;;;;;;31.73;18.70;;;;;;;;;;5092943;28;20030;-64
2021/11/07 06:13:26;;;;;;;28.27;17.73;;;;;;;;;;5093435;28;20394;-65
2021/11/07 06:15:51;;;;;;;26.00;17.63;;;;;;;;;;5093404;28;20028;-65
2021/11/07 06:18:17;;;;;;;32.05;19.88;;;;;;;;;;5093518;28;20371;-65
2021/11/07 06:20:43;;;;;;;29.02;18.75;;;;;;;;;;5093428;28;20357;-65
2021/11/07 06:23:11;;;;;;;33.45;19.63;;;;;;;;;;5093481;28;20067;-71
2021/11/07 06:25:37;;;;;;;31.08;18.83;;;;;;;;;;5093319;28;20020;-72
2021/11/07 06:28:04;;;;;;;46.42;24.75;;;;;;;;;;5093326;28;20089;-73
2021/11/07 06:30:29;;;;;;;124.93;55.03;;;;;;;;;;5093420;28;20028;-72
2021/11/07 06:32:55;;;;;;;68.50;35.97;;;;;;;;;;5093065;28;20391;-72
2021/11/07 06:35:20;;;;;;;45.88;25.60;;;;;;;;;;5093382;28;20105;-72
2021/11/07 06:37:46;;;;;;;39.53;22.25;;;;;;;;;;5092789;28;20495;-72
2021/11/07 06:40:12;;;;;;;40.88;21.67;;;;;;;;;;5091279;28;20086;-72
2021/11/07 06:42:39;;;;;;;52.30;27.30;;;;;;;;;;5073218;28;20211;-72
2021/11/07 06:45:04;;;;;;;61.30;32.80;;;;;;;;;;5072516;28;20107;-72
2021/11/07 06:47:32;;;;;;;73.47;35.92;;;;;;;;;;5065229;28;20123;-72
2021/11/07 06:49:58;;;;;;;61.42;34.10;;;;;;;;;;5071831;28;20068;-72
2021/11/07 06:52:25;;;;;;;63.83;35.55;;;;;;;;;;5071467;28;20111;-72
2021/11/07 06:54:53;;;;;;;54.45;30.92;;;;;;;;;;5071641;28;20486;-72
2021/11/07 06:57:19;;;;;;;51.17;27.63;;;;;;;;;;5070833;28;20049;-72
2021/11/07 06:59:46;;;;;;;54.72;30.50;;;;;;;;;;5053027;28;20044;-73
2021/11/07 07:02:14;;;;;;;52.05;29.50;;;;;;;;;;5071407;28;20480;-73
2021/11/07 07:04:42;;;;;;;56.88;33.50;;;;;;;;;;5071069;28;20036;-74
2021/11/07 07:07:08;;;;;;;69.57;40.28;;;;;;;;;;5071105;28;20496;-73
2021/11/07 07:09:43;;;;;;;54.30;33.72;;;;;;;;;;5070267;28;20031;-73
2021/11/07 07:12:37;;;;;;;42.75;24.10;;;;;;;;;;5071313;28;20047;-72
2021/11/07 07:17:29;;;;;;;25.55;15.35;;;;;;;;;;5071839;28;20459;-72
2021/11/07 07:25:46;;;;;;;21.00;13.25;;;;;;;;;;5075471;28;20045;-72
2021/11/07 07:33:34;;;;;;;21.25;13.30;;;;;;;;;;5074700;28;20052;-73
2021/11/07 07:36:00;;;;;;;20.00;12.60;;;;;;;;;;5056826;28;20032;-72
2021/11/07 07:38:26;;;;;;;18.92;12.80;;;;;;;;;;5074075;28;20098;-72
2021/11/07 07:40:54;;;;;;;21.67;13.45;;;;;;;;;;5074786;28;20041;-72
2021/11/07 07:43:20;;;;;;;18.23;12.45;;;;;;;;;;5074963;28;20040;-72
2021/11/07 07:45:45;;;;;;;18.92;13.07;;;;;;;;;;5073980;28;20052;-72
2021/11/07 07:48:11;;;;;;;21.52;13.35;;;;;;;;;;5074256;28;20047;-72
2021/11/07 07:50:40;;;;;;;23.88;12.90;;;;;;;;;;5075076;28;20045;-72
2021/11/07 07:53:06;;;;;;;17.70;11.52;;;;;;;;;;5075024;28;20024;-72
2021/11/07 07:55:32;;;;;;;20.02;12.40;;;;;;;;;;5074412;28;20041;-73
2021/11/07 07:57:58;;;;;;;20.48;12.10;;;;;;;;;;5074554;28;20035;-73
2021/11/07 08:00:23;;;;;;;17.08;10.95;;;;;;;;;;5038602;28;20047;-73
2021/11/07 08:02:49;;;;;;;15.07;9.88;;;;;;;;;;5073225;28;20063;-73
2021/11/07 08:05:16;;;;;;;15.63;9.77;;;;;;;;;;5074055;28;20051;-73
2021/11/07 08:07:42;;;;;;;14.23;9.75;;;;;;;;;;5074630;28;20033;-72
2021/11/07 08:10:08;;;;;;;13.73;9.13;;;;;;;;;;5074689;28;20029;-73
2021/11/07 08:12:37;;;;;;;13.70;9.25;;;;;;;;;;5074346;28;20037;-73
2021/11/07 08:15:03;;;;;;;14.38;8.73;;;;;;;;;;5073828;28;20538;-72
2021/11/07 08:17:30;;;;;;;10.95;8.10;;;;;;;;;;5054973;28;20045;-73
2021/11/07 08:19:56;;;;;;;12.57;8.65;;;;;;;;;;5073891;28;20082;-73
2021/11/07 08:22:22;;;;;;;13.57;8.88;;;;;;;;;;5072932;28;20115;-72
2021/11/07 08:24:51;;;;;;;13.32;8.52;;;;;;;;;;5063035;28;20041;-73
2021/11/07 08:27:20;;;;;;;12.10;7.75;;;;;;;;;;5063459;28;20426;-73
2021/11/07 08:29:50;;;;;;;12.18;7.25;;;;;;;;;;5063274;28;20037;-73
2021/11/07 08:32:17;;;;;;;;;;;;;;;;;;5036345;28;20040;-73
2021/11/07 08:34:42;;;;;;;11.93;7.45;;;;;;;;;;5041008;28;19905;-73
2021/11/07 08:37:10;;;;;;;8.93;6.60;;;;;;;;;;5070105;28;20049;-72
2021/11/07 08:39:43;;;;;;;10.43;7.35;;;;;;;;;;5057756;28;20047;-72
2021/11/07 08:42:18;;;;;;;11.55;7.50;;;;;;;;;;5074802;28;20127;-72
2021/11/07 09:02:31;;;;;;;8.70;5.82;;;;;;;;;;5075330;28;20398;-72
2021/11/07 09:12:43;;;;;;;6.82;4.43;;;;;;;;;;5033149;28;20024;-72
2021/11/07 09:18:43;;;;;;;7.28;4.47;;;;;;;;;;5033244;28;20382;-72
2021/11/07 09:28:50;;;;;;;6.45;3.90;;;;;;;;;;5032516;28;20047;-72
2021/11/07 09:39:21;;;;;;;4.32;3.05;;;;;;;;;;5071595;28;20103;-72
2021/11/07 09:51:36;;;;;;;4.45;3.70;;;;;;;;;;5054376;28;20092;-72
2021/11/07 10:07:57;;;;;;;3.67;2.15;;;;;;;;;;5053866;28;20415;-72
2021/11/07 10:13:59;;;;;;;2.55;2.28;;;;;;;;;;5054051;28;20031;-72
2021/11/07 10:20:18;;;;;;;2.05;1.70;;;;;;;;;;5053966;28;20040;-72
2021/11/07 10:30:43;;;;;;;6.78;3.40;;;;;;;;;;5012173;28;20094;-72
2021/11/07 10:58:03;;;;;;;1.92;1.63;;;;;;;;;;5057680;28;20557;-72
2021/11/07 11:04:04;;;;;;;1.27;1.17;;;;;;;;;;5057335;28;20028;-72
2021/11/07 11:10:15;;;;;;;4.10;2.45;;;;;;;;;;5057447;28;20036;-72
2021/11/07 11:23:19;;;;;;;1.85;1.50;;;;;;;;;;5057189;28;20032;-72
2021/11/07 12:01:40;;;;;;;2.72;2.53;;;;;;;;;;5076496;28;20020;-72
2021/11/07 12:14:24;;;;;;;1.88;1.52;;;;;;;;;;5076300;28;20184;-72
2021/11/07 12:24:47;;;;;;;4.85;2.42;;;;;;;;;;5034117;28;20030;-72
2021/11/07 12:41:33;;;;;;;1.88;1.48;;;;;;;;;;4994321;28;20029;-72
2021/11/07 12:50:56;;;;;;;2.30;2.10;;;;;;;;;;5033573;28;20087;-72
2021/11/07 12:57:03;;;;;;;5.03;1.30;;;;;;;;;;5033280;28;20032;-72
2021/11/07 13:03:07;;;;;;;2.42;1.83;;;;;;;;;;5033553;28;20036;-72
2021/11/07 13:09:08;;;;;;;2.60;1.30;;;;;;;;;;5075373;28;20039;-72
2021/11/07 13:21:29;;;;;;;1.80;1.23;;;;;;;;;;5074939;28;20146;-72
2021/11/07 17:24:37;;;;;;;8.88;6.20;;;;;;;;;;5074299;28;20044;-73
2021/11/07 17:26:46;;;;;;;9.05;6.22;;;;;;;;;;5045419;28;20040;-72
2021/11/07 17:29:13;;;;;;;6.20;3.88;;;;;;;;;;5055122;28;20051;-72
2021/11/07 17:31:52;;;;;;;7.78;5.50;;;;;;;;;;5072726;28;20111;-72
2021/11/07 17:34:26;;;;;;;10.25;6.28;;;;;;;;;;5070693;28;20519;-66
2021/11/07 17:37:03;;;;;;;7.38;5.07;;;;;;;;;;5069747;28;20048;-72
2021/11/07 17:39:56;;;;;;;11.25;6.03;;;;;;;;;;5072270;28;20048;-72
2021/11/07 17:56:00;;;;;;;3.47;2.33;;;;;;;;;;5069952;28;20044;-65
2021/11/07 17:58:26;;;;;;;2.63;2.08;;;;;;;;;;5052607;28;20119;-65
2021/11/07 18:00:53;;;;;;;8.55;5.38;;;;;;;;;;5070618;28;20459;-65
2021/11/07 18:03:19;;;;;;;4.15;2.92;;;;;;;;;;5070521;28;20040;-65
2021/11/07 18:05:47;;;;;;;11.15;5.85;;;;;;;;;;5069920;28;20032;-65
2021/11/07 18:10:45;;;;;;;4.13;3.60;;;;;;;;;;5070357;28;20102;-66
2021/11/07 18:13:12;;;;;;;8.43;5.82;;;;;;;;;;5070812;28;20045;-68
2021/11/07 18:15:37;;;;;;;9.30;6.22;;;;;;;;;;5070552;28;20032;-68
2021/11/07 18:18:03;;;;;;;10.48;6.25;;;;;;;;;;5070457;28;20047;-68
2021/11/07 18:20:28;;;;;;;6.07;4.03;;;;;;;;;;5070160;28;20479;-68
2021/11/07 18:22:59;;;;;;;5.95;4.68;;;;;;;;;;5070818;28;20045;-68
2021/11/07 18:25:27;;;;;;;9.15;6.40;;;;;;;;;;5070140;28;20031;-68
2021/11/07 18:27:54;;;;;;;9.55;6.93;;;;;;;;;;5067768;28;20123;-68
2021/11/07 18:30:22;;;;;;;8.07;4.63;;;;;;;;;;5051945;28;20064;-68
2021/11/07 18:32:48;;;;;;;7.18;5.25;;;;;;;;;;5070603;28;20031;-68
2021/11/07 18:35:15;;;;;;;11.00;6.03;;;;;;;;;;5069634;28;20032;-66
2021/11/07 18:37:41;;;;;;;7.30;4.32;;;;;;;;;;5070375;28;20078;-67
2021/11/07 18:40:08;;;;;;;11.82;7.63;;;;;;;;;;5069932;28;20041;-65
2021/11/07 18:42:34;;;;;;;7.65;4.72;;;;;;;;;;5070013;28;20082;-67
2021/11/07 18:45:00;;;;;;;9.18;7.22;;;;;;;;;;5069024;28;20028;-66
2021/11/07 18:47:27;;;;;;;12.80;8.25;;;;;;;;;;5068892;28;20110;-66
2021/11/07 18:49:53;;;;;;;8.10;5.03;;;;;;;;;;5064408;28;20040;-66
2021/11/07 18:52:19;;;;;;;12.52;7.00;;;;;;;;;;5064473;28;20041;-67
2021/11/07 18:54:46;;;;;;;11.43;7.68;;;;;;;;;;5065627;28;20041;-77
2021/11/07 18:57:16;;;;;;;10.05;6.93;;;;;;;;;;5068769;28;20424;-69
2021/11/07 18:59:42;;;;;;;11.45;7.63;;;;;;;;;;5063990;28;20041;-69
2021/11/07 19:02:08;;;;;;;11.00;5.90;;;;;;;;;;5049862;28;20048;-71
2021/11/07 19:04:34;;;;;;;9.93;5.97;;;;;;;;;;5065496;28;20593;-70
2021/11/07 19:06:59;;;;;;;10.20;6.97;;;;;;;;;;5065367;28;20035;-70
2021/11/07 19:09:25;;;;;;;10.27;7.28;;;;;;;;;;5068780;28;20037;-70
2021/11/07 19:11:50;;;;;;;10.65;7.03;;;;;;;;;;5069409;28;20372;-65
2021/11/07 19:14:16;;;;;;;8.15;5.18;;;;;;;;;;5051716;28;20041;-67
2021/11/07 19:16:42;;;;;;;12.77;8.00;;;;;;;;;;5072550;28;20047;-71
2021/11/07 19:19:08;;;;;;;9.90;7.03;;;;;;;;;;5070398;28;20044;-70
2021/11/07 19:21:33;;;;;;;7.95;5.78;;;;;;;;;;5072586;28;20048;-70
2021/11/07 19:23:59;;;;;;;12.73;7.30;;;;;;;;;;5073199;28;20075;-70
2021/11/07 19:26:26;;;;;;;14.50;9.00;;;;;;;;;;5052186;28;20467;-70
2021/11/07 19:28:52;;;;;;;14.95;9.85;;;;;;;;;;5071820;28;20029;-70
2021/11/07 19:31:20;;;;;;;13.38;7.45;;;;;;;;;;5072508;28;20036;-70
2021/11/07 19:33:48;;;;;;;13.75;8.30;;;;;;;;;;5072738;28;20074;-70
2021/11/07 19:36:13;;;;;;;13.77;8.23;;;;;;;;;;5072852;28;20020;-70
2021/11/07 19:38:39;;;;;;;12.65;9.18;;;;;;;;;;5073247;28;20048;-70
2021/11/07 19:44:40;;;;;;;13.20;7.75;;;;;;;;;;5076867;28;20106;-71
2021/11/07 19:50:44;;;;;;;11.98;6.85;;;;;;;;;;5076758;28;20380;-70
2021/11/07 19:56:46;;;;;;;13.70;8.57;;;;;;;;;;5076676;28;20384;-71
2021/11/07 20:15:41;;;;;;;17.88;9.18;;;;;;;;;;5076087;28;20028;-71
2021/11/07 20:25:31;;;;;;;13.10;8.63;;;;;;;;;;5075724;28;20078;-71
2021/11/07 20:31:31;;;;;;;20.45;10.43;;;;;;;;;;5075771;28;20031;-70
2021/11/07 20:37:33;;;;;;;16.75;9.52;;;;;;;;;;5075911;28;20036;-70
2021/11/07 20:43:39;;;;;;;17.40;9.75;;;;;;;;;;5075806;28;20078;-73
2021/11/07 21:05:26;;;;;;;12.65;8.90;;;;;;;;;;5075468;28;20471;-73
2021/11/07 21:08:03;;;;;;;15.18;9.25;;;;;;;;;;5074753;28;20040;-72
2021/11/07 21:13:04;;;;;;;13.02;8.15;;;;;;;;;;5075244;28;20029;-73
2021/11/07 21:16:00;;;;;;;16.60;9.43;;;;;;;;;;5075004;28;20090;-71
2021/11/07 21:18:35;;;;;;;14.98;9.13;;;;;;;;;;5056946;28;20043;-70
2021/11/07 21:26:27;;;;;;;17.42;10.75;;;;;;;;;;5074482;28;20041;-72
2021/11/07 21:28:54;;;;;;;14.38;9.02;;;;;;;;;;5074957;28;20397;-72
2021/11/07 21:31:24;;;;;;;16.70;9.73;;;;;;;;;;5074197;28;20472;-72
2021/11/07 21:39:38;;;;;;;14.50;8.60;;;;;;;;;;5012582;28;20417;-72
2021/11/07 21:42:13;;;;;;;15.48;9.70;;;;;;;;;;5064598;28;20364;-72
2021/11/07 21:44:42;;;;;;;12.18;8.90;;;;;;;;;;5073948;28;20514;-71
2021/11/07 21:47:13;;;;;;;15.10;8.77;;;;;;;;;;5074106;28;20484;-72
2021/11/07 21:49:39;;;;;;;13.27;8.52;;;;;;;;;;5073725;28;20488;-70
2021/11/07 21:52:06;;;;;;;14.68;9.18;;;;;;;;;;5073843;28;20111;-70
2021/11/07 21:54:31;;;;;;;14.65;9.13;;;;;;;;;;5073872;28;20056;-70
2021/11/07 21:56:57;;;;;;;16.42;10.15;;;;;;;;;;5073797;28;20083;-70
2021/11/07 21:59:22;;;;;;;16.60;9.25;;;;;;;;;;5073679;28;20043;-70
2021/11/07 22:01:49;;;;;;;13.05;8.93;;;;;;;;;;5055896;28;20104;-70
2021/11/07 22:04:17;;;;;;;15.20;8.93;;;;;;;;;;5073516;28;20040;-70
2021/11/07 22:06:43;;;;;;;18.98;10.98;;;;;;;;;;5055989;28;20345;-70
2021/11/07 22:09:10;;;;;;;20.17;11.05;;;;;;;;;;5073711;28;20040;-70
2021/11/07 22:11:39;;;;;;;19.77;10.45;;;;;;;;;;5073469;28;20028;-70
2021/11/07 22:14:06;;;;;;;17.02;10.07;;;;;;;;;;5073578;28;20515;-70
2021/11/07 22:19:08;;;;;;;14.10;9.43;;;;;;;;;;5073428;28;20036;-70
2021/11/07 22:21:48;;;;;;;;;;;;;;;;;;5073191;28;20045;-70
2021/11/07 22:24:16;;;;;;;13.57;8.95;;;;;;;;;;5073483;28;19955;-69
2021/11/07 22:26:42;;;;;;;18.80;10.23;;;;;;;;;;5055601;28;20064;-70
2021/11/07 22:29:55;;;;;;;16.02;10.18;;;;;;;;;;5055719;28;20508;-69
2021/11/07 22:32:11;;;;;;;15.75;9.77;;;;;;;;;;5065106;28;20384;-69
2021/11/07 22:34:51;;;;;;;14.18;8.95;;;;;;;;;;5073319;28;20040;-69
2021/11/07 22:37:19;;;;;;;17.13;9.95;;;;;;;;;;5073297;28;20040;-69
2021/11/07 22:39:44;;;;;;;14.32;8.60;;;;;;;;;;5073109;28;20082;-69
2021/11/07 22:42:13;;;;;;;16.05;9.55;;;;;;;;;;5073286;28;20033;-69
2021/11/07 22:44:39;;;;;;;12.93;8.40;;;;;;;;;;5073267;28;20480;-69
2021/11/07 22:47:06;;;;;;;12.43;8.50;;;;;;;;;;5073359;28;20125;-72
2021/11/07 22:49:33;;;;;;;12.35;8.23;;;;;;;;;;5076570;28;20025;-72
2021/11/07 22:52:07;;;;;;;12.75;8.48;;;;;;;;;;5079814;28;20388;-70
2021/11/07 22:59:51;;;;;;;12.57;8.30;;;;;;;;;;5079582;28;20035;-70
2021/11/07 23:05:04;;;;;;;14.13;8.40;;;;;;;;;;5080024;28;20040;-70
2021/11/07 23:07:29;;;;;;;13.73;8.40;;;;;;;;;;5079644;28;20033;-70
2021/11/07 23:09:56;;;;;;;12.95;8.57;;;;;;;;;;5079639;28;20044;-70
2021/11/07 23:12:23;;;;;;;13.45;7.97;;;;;;;;;;5079434;28;20025;-70
2021/11/07 23:14:50;;;;;;;13.23;8.63;;;;;;;;;;5079660;28;20631;-70
2021/11/07 23:17:17;;;;;;;13.05;8.93;;;;;;;;;;5079670;28;20471;-69
2021/11/07 23:19:42;;;;;;;13.43;8.93;;;;;;;;;;5079891;28;20052;-69
2021/11/07 23:22:28;;;;;;;15.63;9.30;;;;;;;;;;5079375;28;20048;-69
2021/11/07 23:24:54;;;;;;;14.40;9.02;;;;;;;;;;5079233;28;20040;-69
2021/11/07 23:27:21;;;;;;;16.67;8.77;;;;;;;;;;5079476;28;20028;-72
2021/11/07 23:29:47;;;;;;;12.57;8.40;;;;;;;;;;5079662;28;20032;-72
2021/11/07 23:32:13;;;;;;;13.70;8.88;;;;;;;;;;5079079;28;20413;-72
2021/11/07 23:34:39;;;;;;;13.80;8.38;;;;;;;;;;5080211;28;20098;-72
2021/11/07 23:37:13;;;;;;;13.48;8.63;;;;;;;;;;5079510;28;20460;-72
2021/11/07 23:39:40;;;;;;;12.90;8.30;;;;;;;;;;5079616;28;20131;-72
2021/11/07 23:42:07;;;;;;;13.80;8.13;;;;;;;;;;5079444;28;20025;-72
2021/11/07 23:44:34;;;;;;;14.95;9.02;;;;;;;;;;5079664;28;20064;-73
2021/11/07 23:46:59;;;;;;;11.18;8.13;;;;;;;;;;5079092;28;20499;-72
2021/11/07 23:49:25;;;;;;;13.20;8.65;;;;;;;;;;5079186;28;20416;-72
2021/11/07 23:54:48;;;;;;;14.60;9.13;;;;;;;;;;5034199;28;20049;-72
2021/11/07 23:57:26;;;;;;;15.65;8.90;;;;;;;;;;5078958;28;20039;-69
2021/11/07 23:59:52;;;;;;;16.20;8.93;;;;;;;;;;5079108;28;20071;-70
